sensor_id;sensor_type;location;lat;lon;timestamp;P1;durP1;ratioP1;P2;durP2;ratioP2
72524;SDS011;60547;48.502;8.996;2022-09-09T00:00:26;3.83;;;1.25;;
72524;SDS011;60547;48.502;8.996;2022-09-09T00:02:54;4.60;;;1.65;;
72524;SDS011;60547;48.502;8.996;2022-09-09T00:05:38;3.10;;;1.40;;
72524;SDS011;60547;48.502;8.996;2022-09-09T00:08:11;3.45;;;1.77;;
72524;SDS011;60547;48.502;8.996;2022-09-09T00:10:43;3.50;;;1.30;;
72524;SDS011;60547;48.502;8.996;2022-09-09T00:13:25;5.05;;;1.45;;
72524;SDS011;60547;48.502;8.996;2022-09-09T00:21:46;4.15;;;1.45;;
72524;SDS011;60547;48.502;8.996;2022-09-09T00:24:32;4.93;;;1.60;;
72524;SDS011;60547;48.502;8.996;2022-09-09T00:27:04;4.78;;;1.52;;
72524;SDS011;60547;48.502;8.996;2022-09-09T00:29:42;4.07;;;1.40;;
72524;SDS011;60547;48.502;8.996;2022-09-09T00:32:14;4.55;;;1.65;;
72524;SDS011;60547;48.502;8.996;2022-09-09T00:34:56;4.78;;;1.60;;
72524;SDS011;60547;48.502;8.996;2022-09-09T00:37:26;4.75;;;1.90;;
72524;SDS011;60547;48.502;8.996;2022-09-09T00:39:57;5.47;;;1.42;;
72524;SDS011;60547;48.502;8.996;2022-09-09T00:42:33;2.92;;;1.58;;
72524;SDS011;60547;48.502;8.996;2022-09-09T00:45:26;2.80;;;1.30;;
72524;SDS011;60547;48.502;8.996;2022-09-09T00:47:57;4.68;;;1.83;;
72524;SDS011;60547;48.502;8.996;2022-09-09T00:50:38;6.15;;;1.40;;
72524;SDS011;60547;48.502;8.996;2022-09-09T01:01:36;4.20;;;1.38;;
72524;SDS011;60547;48.502;8.996;2022-09-09T01:04:01;5.97;;;1.60;;
72524;SDS011;60547;48.502;8.996;2022-09-09T01:06:34;4.00;;;1.65;;
72524;SDS011;60547;48.502;8.996;2022-09-09T01:12:09;3.17;;;1.60;;
72524;SDS011;60547;48.502;8.996;2022-09-09T01:14:48;4.38;;;1.60;;
72524;SDS011;60547;48.502;8.996;2022-09-09T01:27:32;4.20;;;1.40;;
72524;SDS011;60547;48.502;8.996;2022-09-09T01:29:59;3.00;;;1.38;;
72524;SDS011;60547;48.502;8.996;2022-09-09T01:37:55;6.22;;;1.70;;
72524;SDS011;60547;48.502;8.996;2022-09-09T01:40:20;3.83;;;1.50;;
72524;SDS011;60547;48.502;8.996;2022-09-09T01:42:46;3.53;;;1.45;;
72524;SDS011;60547;48.502;8.996;2022-09-09T01:45:12;4.00;;;1.42;;
72524;SDS011;60547;48.502;8.996;2022-09-09T01:47:37;4.80;;;1.50;;
72524;SDS011;60547;48.502;8.996;2022-09-09T01:50:03;2.63;;;1.23;;
72524;SDS011;60547;48.502;8.996;2022-09-09T01:52:29;3.00;;;1.42;;
72524;SDS011;60547;48.502;8.996;2022-09-09T01:54:57;3.92;;;1.50;;
72524;SDS011;60547;48.502;8.996;2022-09-09T01:57:33;3.30;;;1.40;;
72524;SDS011;60547;48.502;8.996;2022-09-09T02:00:23;6.85;;;1.40;;
72524;SDS011;60547;48.502;8.996;2022-09-09T02:08:24;5.25;;;1.88;;
72524;SDS011;60547;48.502;8.996;2022-09-09T02:11:05;6.28;;;1.80;;
72524;SDS011;60547;48.502;8.996;2022-09-09T02:13:36;4.95;;;1.70;;
72524;SDS011;60547;48.502;8.996;2022-09-09T02:21:22;4.15;;;1.60;;
72524;SDS011;60547;48.502;8.996;2022-09-09T02:23:49;4.90;;;1.60;;
72524;SDS011;60547;48.502;8.996;2022-09-09T02:26:18;5.32;;;1.45;;
72524;SDS011;60547;48.502;8.996;2022-09-09T02:28:49;5.72;;;1.67;;
72524;SDS011;60547;48.502;8.996;2022-09-09T02:31:17;3.50;;;1.38;;
72524;SDS011;60547;48.502;8.996;2022-09-09T02:33:46;3.90;;;1.30;;
72524;SDS011;60547;48.502;8.996;2022-09-09T02:36:17;5.53;;;1.40;;
72524;SDS011;60547;48.502;8.996;2022-09-09T02:38:46;6.07;;;1.40;;
72524;SDS011;60547;48.502;8.996;2022-09-09T02:41:19;3.38;;;1.60;;
72524;SDS011;60547;48.502;8.996;2022-09-09T02:43:48;3.40;;;1.70;;
72524;SDS011;60547;48.502;8.996;2022-09-09T02:48:51;5.38;;;1.63;;
72524;SDS011;60547;48.502;8.996;2022-09-09T02:51:35;4.65;;;1.50;;
72524;SDS011;60547;48.502;8.996;2022-09-09T02:54:10;3.33;;;1.67;;
72524;SDS011;60547;48.502;8.996;2022-09-09T02:56:52;3.30;;;1.50;;
72524;SDS011;60547;48.502;8.996;2022-09-09T02:59:21;2.67;;;1.58;;
72524;SDS011;60547;48.502;8.996;2022-09-09T03:01:47;4.93;;;1.65;;
72524;SDS011;60547;48.502;8.996;2022-09-09T03:04:13;4.28;;;1.48;;
72524;SDS011;60547;48.502;8.996;2022-09-09T03:06:38;4.07;;;2.00;;
72524;SDS011;60547;48.502;8.996;2022-09-09T03:09:04;4.63;;;1.70;;
72524;SDS011;60547;48.502;8.996;2022-09-09T03:11:30;4.28;;;1.70;;
72524;SDS011;60547;48.502;8.996;2022-09-09T03:13:55;5.63;;;1.70;;
72524;SDS011;60547;48.502;8.996;2022-09-09T03:16:22;4.53;;;1.70;;
72524;SDS011;60547;48.502;8.996;2022-09-09T03:18:47;4.75;;;1.48;;
72524;SDS011;60547;48.502;8.996;2022-09-09T03:21:13;3.22;;;1.30;;
72524;SDS011;60547;48.502;8.996;2022-09-09T03:23:39;2.70;;;1.30;;
72524;SDS011;60547;48.502;8.996;2022-09-09T03:26:04;5.93;;;1.63;;
72524;SDS011;60547;48.502;8.996;2022-09-09T03:28:30;3.75;;;1.55;;
72524;SDS011;60547;48.502;8.996;2022-09-09T03:30:59;3.75;;;1.67;;
72524;SDS011;60547;48.502;8.996;2022-09-09T03:33:25;4.25;;;1.75;;
72524;SDS011;60547;48.502;8.996;2022-09-09T03:35:52;4.68;;;1.40;;
72524;SDS011;60547;48.502;8.996;2022-09-09T03:38:18;5.32;;;1.70;;
72524;SDS011;60547;48.502;8.996;2022-09-09T03:40:50;3.50;;;1.67;;
72524;SDS011;60547;48.502;8.996;2022-09-09T03:43:23;5.57;;;2.65;;
72524;SDS011;60547;48.502;8.996;2022-09-09T03:48:16;4.78;;;1.65;;
72524;SDS011;60547;48.502;8.996;2022-09-09T03:50:46;4.50;;;1.35;;
72524;SDS011;60547;48.502;8.996;2022-09-09T03:53:13;3.75;;;1.60;;
72524;SDS011;60547;48.502;8.996;2022-09-09T03:55:43;4.28;;;2.22;;
72524;SDS011;60547;48.502;8.996;2022-09-09T03:58:13;5.63;;;1.60;;
72524;SDS011;60547;48.502;8.996;2022-09-09T04:00:39;3.30;;;1.30;;
72524;SDS011;60547;48.502;8.996;2022-09-09T04:03:07;4.65;;;1.60;;
72524;SDS011;60547;48.502;8.996;2022-09-09T04:05:36;3.70;;;1.50;;
72524;SDS011;60547;48.502;8.996;2022-09-09T04:08:08;3.00;;;1.20;;
72524;SDS011;60547;48.502;8.996;2022-09-09T04:10:33;3.35;;;1.50;;
72524;SDS011;60547;48.502;8.996;2022-09-09T04:13:01;2.47;;;1.30;;
72524;SDS011;60547;48.502;8.996;2022-09-09T04:15:27;3.15;;;1.40;;
72524;SDS011;60547;48.502;8.996;2022-09-09T04:17:53;3.60;;;1.40;;
72524;SDS011;60547;48.502;8.996;2022-09-09T04:20:18;3.42;;;1.50;;
72524;SDS011;60547;48.502;8.996;2022-09-09T04:22:44;4.35;;;1.58;;
72524;SDS011;60547;48.502;8.996;2022-09-09T04:25:09;3.58;;;1.40;;
72524;SDS011;60547;48.502;8.996;2022-09-09T04:27:35;3.88;;;1.20;;
72524;SDS011;60547;48.502;8.996;2022-09-09T04:30:00;2.47;;;1.25;;
72524;SDS011;60547;48.502;8.996;2022-09-09T04:32:29;3.45;;;1.50;;
72524;SDS011;60547;48.502;8.996;2022-09-09T04:34:57;4.40;;;1.23;;
72524;SDS011;60547;48.502;8.996;2022-09-09T04:37:22;2.85;;;1.10;;
72524;SDS011;60547;48.502;8.996;2022-09-09T04:39:49;3.60;;;1.20;;
72524;SDS011;60547;48.502;8.996;2022-09-09T04:42:15;2.25;;;1.15;;
72524;SDS011;60547;48.502;8.996;2022-09-09T04:44:41;5.55;;;1.48;;
72524;SDS011;60547;48.502;8.996;2022-09-09T04:47:07;4.90;;;1.42;;
72524;SDS011;60547;48.502;8.996;2022-09-09T04:49:32;6.07;;;1.77;;
72524;SDS011;60547;48.502;8.996;2022-09-09T04:51:57;3.30;;;1.30;;
72524;SDS011;60547;48.502;8.996;2022-09-09T04:54:23;8.27;;;1.70;;
72524;SDS011;60547;48.502;8.996;2022-09-09T04:56:49;6.68;;;1.70;;
72524;SDS011;60547;48.502;8.996;2022-09-09T04:59:15;3.35;;;1.38;;
72524;SDS011;60547;48.502;8.996;2022-09-09T05:01:41;9.68;;;1.70;;
72524;SDS011;60547;48.502;8.996;2022-09-09T05:04:07;6.40;;;1.35;;
72524;SDS011;60547;48.502;8.996;2022-09-09T05:06:33;5.47;;;1.45;;
72524;SDS011;60547;48.502;8.996;2022-09-09T05:08:59;7.22;;;1.85;;
72524;SDS011;60547;48.502;8.996;2022-09-09T05:11:26;6.38;;;1.50;;
72524;SDS011;60547;48.502;8.996;2022-09-09T05:13:53;6.22;;;1.88;;
72524;SDS011;60547;48.502;8.996;2022-09-09T05:16:19;5.57;;;1.50;;
72524;SDS011;60547;48.502;8.996;2022-09-09T05:18:45;6.97;;;1.35;;
72524;SDS011;60547;48.502;8.996;2022-09-09T05:21:11;4.50;;;1.30;;
72524;SDS011;60547;48.502;8.996;2022-09-09T05:23:38;3.58;;;1.40;;
72524;SDS011;60547;48.502;8.996;2022-09-09T05:26:05;3.00;;;1.40;;
72524;SDS011;60547;48.502;8.996;2022-09-09T05:28:33;4.35;;;1.58;;
72524;SDS011;60547;48.502;8.996;2022-09-09T05:31:01;5.13;;;1.50;;
72524;SDS011;60547;48.502;8.996;2022-09-09T05:33:30;4.95;;;1.50;;
72524;SDS011;60547;48.502;8.996;2022-09-09T05:35:57;5.28;;;1.60;;
72524;SDS011;60547;48.502;8.996;2022-09-09T05:38:23;4.45;;;1.73;;
72524;SDS011;60547;48.502;8.996;2022-09-09T05:40:52;3.95;;;1.50;;
72524;SDS011;60547;48.502;8.996;2022-09-09T05:43:18;3.17;;;1.50;;
72524;SDS011;60547;48.502;8.996;2022-09-09T05:45:47;4.07;;;1.40;;
72524;SDS011;60547;48.502;8.996;2022-09-09T05:48:16;6.10;;;1.52;;
72524;SDS011;60547;48.502;8.996;2022-09-09T05:50:42;5.75;;;1.58;;
72524;SDS011;60547;48.502;8.996;2022-09-09T05:53:08;5.47;;;1.50;;
72524;SDS011;60547;48.502;8.996;2022-09-09T05:55:36;4.28;;;1.65;;
72524;SDS011;60547;48.502;8.996;2022-09-09T05:58:01;6.85;;;1.50;;
72524;SDS011;60547;48.502;8.996;2022-09-09T06:00:27;4.20;;;1.90;;
72524;SDS011;60547;48.502;8.996;2022-09-09T06:02:54;4.50;;;2.00;;
72524;SDS011;60547;48.502;8.996;2022-09-09T06:05:20;5.93;;;2.10;;
72524;SDS011;60547;48.502;8.996;2022-09-09T06:07:45;5.35;;;2.22;;
72524;SDS011;60547;48.502;8.996;2022-09-09T06:10:11;5.90;;;2.10;;
72524;SDS011;60547;48.502;8.996;2022-09-09T06:12:38;8.10;;;2.53;;
72524;SDS011;60547;48.502;8.996;2022-09-09T06:15:04;7.68;;;2.42;;
72524;SDS011;60547;48.502;8.996;2022-09-09T06:17:30;4.18;;;2.00;;
72524;SDS011;60547;48.502;8.996;2022-09-09T06:19:56;6.75;;;2.40;;
72524;SDS011;60547;48.502;8.996;2022-09-09T06:22:22;5.38;;;2.28;;
72524;SDS011;60547;48.502;8.996;2022-09-09T06:24:48;6.82;;;1.95;;
72524;SDS011;60547;48.502;8.996;2022-09-09T06:27:13;8.15;;;2.30;;
72524;SDS011;60547;48.502;8.996;2022-09-09T06:29:38;6.88;;;1.70;;
72524;SDS011;60547;48.502;8.996;2022-09-09T06:32:04;4.53;;;1.90;;
72524;SDS011;60547;48.502;8.996;2022-09-09T06:34:32;5.82;;;2.00;;
72524;SDS011;60547;48.502;8.996;2022-09-09T06:36:57;8.13;;;1.80;;
72524;SDS011;60547;48.502;8.996;2022-09-09T06:39:23;5.10;;;2.08;;
72524;SDS011;60547;48.502;8.996;2022-09-09T06:41:48;7.15;;;2.17;;
72524;SDS011;60547;48.502;8.996;2022-09-09T06:44:14;5.07;;;1.98;;
72524;SDS011;60547;48.502;8.996;2022-09-09T06:46:40;6.68;;;1.90;;
72524;SDS011;60547;48.502;8.996;2022-09-09T06:49:07;3.67;;;1.67;;
72524;SDS011;60547;48.502;8.996;2022-09-09T06:51:34;5.50;;;1.48;;
72524;SDS011;60547;48.502;8.996;2022-09-09T06:54:01;6.10;;;1.73;;
72524;SDS011;60547;48.502;8.996;2022-09-09T06:56:32;6.35;;;1.73;;
72524;SDS011;60547;48.502;8.996;2022-09-09T06:59:00;5.03;;;1.30;;
72524;SDS011;60547;48.502;8.996;2022-09-09T07:01:38;6.30;;;1.70;;
72524;SDS011;60547;48.502;8.996;2022-09-09T07:04:16;4.95;;;1.58;;
72524;SDS011;60547;48.502;8.996;2022-09-09T07:06:43;4.65;;;1.75;;
72524;SDS011;60547;48.502;8.996;2022-09-09T07:09:11;4.95;;;1.60;;
72524;SDS011;60547;48.502;8.996;2022-09-09T07:11:42;6.68;;;1.67;;
72524;SDS011;60547;48.502;8.996;2022-09-09T07:14:09;6.85;;;1.52;;
72524;SDS011;60547;48.502;8.996;2022-09-09T07:16:38;4.20;;;1.60;;
72524;SDS011;60547;48.502;8.996;2022-09-09T07:19:03;5.00;;;1.48;;
72524;SDS011;60547;48.502;8.996;2022-09-09T07:21:29;3.58;;;1.40;;
72524;SDS011;60547;48.502;8.996;2022-09-09T07:23:56;4.50;;;1.55;;
72524;SDS011;60547;48.502;8.996;2022-09-09T07:26:24;3.70;;;1.30;;
72524;SDS011;60547;48.502;8.996;2022-09-09T07:28:51;5.47;;;1.50;;
72524;SDS011;60547;48.502;8.996;2022-09-09T07:31:24;4.15;;;1.45;;
72524;SDS011;60547;48.502;8.996;2022-09-09T07:33:51;3.25;;;1.30;;
72524;SDS011;60547;48.502;8.996;2022-09-09T07:36:18;5.72;;;1.50;;
72524;SDS011;60547;48.502;8.996;2022-09-09T07:38:46;3.90;;;1.50;;
72524;SDS011;60547;48.502;8.996;2022-09-09T07:41:23;3.47;;;1.20;;
72524;SDS011;60547;48.502;8.996;2022-09-09T07:43:51;3.53;;;1.30;;
72524;SDS011;60547;48.502;8.996;2022-09-09T07:46:19;3.13;;;1.30;;
72524;SDS011;60547;48.502;8.996;2022-09-09T07:48:47;3.95;;;1.27;;
72524;SDS011;60547;48.502;8.996;2022-09-09T07:51:24;2.63;;;1.20;;
72524;SDS011;60547;48.502;8.996;2022-09-09T07:53:53;3.72;;;1.30;;
72524;SDS011;60547;48.502;8.996;2022-09-09T07:56:20;5.10;;;1.40;;
72524;SDS011;60547;48.502;8.996;2022-09-09T07:58:48;3.10;;;1.50;;
72524;SDS011;60547;48.502;8.996;2022-09-09T08:01:16;3.58;;;1.20;;
72524;SDS011;60547;48.502;8.996;2022-09-09T08:03:43;4.65;;;1.50;;
72524;SDS011;60547;48.502;8.996;2022-09-09T08:06:17;5.38;;;1.33;;
72524;SDS011;60547;48.502;8.996;2022-09-09T08:08:42;2.97;;;1.27;;
72524;SDS011;60547;48.502;8.996;2022-09-09T08:11:13;5.15;;;1.40;;
72524;SDS011;60547;48.502;8.996;2022-09-09T08:13:40;4.30;;;1.50;;
72524;SDS011;60547;48.502;8.996;2022-09-09T08:16:13;5.65;;;1.42;;
72524;SDS011;60547;48.502;8.996;2022-09-09T08:18:41;4.35;;;1.50;;
72524;SDS011;60547;48.502;8.996;2022-09-09T08:21:14;3.67;;;1.55;;
72524;SDS011;60547;48.502;8.996;2022-09-09T08:23:42;4.60;;;1.70;;
72524;SDS011;60547;48.502;8.996;2022-09-09T08:26:18;4.03;;;1.30;;
72524;SDS011;60547;48.502;8.996;2022-09-09T08:28:47;2.80;;;1.20;;
72524;SDS011;60547;48.502;8.996;2022-09-09T08:31:17;3.55;;;1.30;;
72524;SDS011;60547;48.502;8.996;2022-09-09T08:33:44;3.70;;;1.27;;
72524;SDS011;60547;48.502;8.996;2022-09-09T08:36:19;2.22;;;1.13;;
72524;SDS011;60547;48.502;8.996;2022-09-09T08:38:47;2.85;;;1.17;;
72524;SDS011;60547;48.502;8.996;2022-09-09T08:52:12;4.25;;;1.10;;
72524;SDS011;60547;48.502;8.996;2022-09-09T08:54:41;4.97;;;1.30;;
72524;SDS011;60547;48.502;8.996;2022-09-09T08:57:08;5.03;;;1.40;;
72524;SDS011;60547;48.502;8.996;2022-09-09T08:59:39;3.88;;;1.10;;
72524;SDS011;60547;48.502;8.996;2022-09-09T09:02:20;5.10;;;1.02;;
72524;SDS011;60547;48.502;8.996;2022-09-09T09:05:02;3.83;;;1.30;;
72524;SDS011;60547;48.502;8.996;2022-09-09T09:07:40;3.80;;;1.08;;
72524;SDS011;60547;48.502;8.996;2022-09-09T09:10:20;3.40;;;1.08;;
72524;SDS011;60547;48.502;8.996;2022-09-09T09:12:55;3.65;;;0.98;;
72524;SDS011;60547;48.502;8.996;2022-09-09T09:15:23;3.53;;;0.88;;
72524;SDS011;60547;48.502;8.996;2022-09-09T09:17:50;3.47;;;1.20;;
72524;SDS011;60547;48.502;8.996;2022-09-09T09:20:16;3.60;;;0.80;;
72524;SDS011;60547;48.502;8.996;2022-09-09T09:22:49;4.57;;;1.10;;
72524;SDS011;60547;48.502;8.996;2022-09-09T09:25:17;2.58;;;1.00;;
72524;SDS011;60547;48.502;8.996;2022-09-09T09:30:43;4.72;;;1.20;;
72524;SDS011;60547;48.502;8.996;2022-09-09T09:33:27;2.33;;;1.00;;
72524;SDS011;60547;48.502;8.996;2022-09-09T09:36:02;3.42;;;0.90;;
72524;SDS011;60547;48.502;8.996;2022-09-09T09:38:28;4.20;;;1.08;;
72524;SDS011;60547;48.502;8.996;2022-09-09T09:40:57;5.72;;;1.17;;
72524;SDS011;60547;48.502;8.996;2022-09-09T09:43:33;4.07;;;1.30;;
72524;SDS011;60547;48.502;8.996;2022-09-09T09:46:00;4.25;;;1.23;;
72524;SDS011;60547;48.502;8.996;2022-09-09T09:48:29;3.33;;;0.70;;
72524;SDS011;60547;48.502;8.996;2022-09-09T09:51:14;4.28;;;1.10;;
72524;SDS011;60547;48.502;8.996;2022-09-09T09:53:43;4.50;;;1.50;;
72524;SDS011;60547;48.502;8.996;2022-09-09T09:56:11;6.63;;;1.33;;
72524;SDS011;60547;48.502;8.996;2022-09-09T10:03:51;4.32;;;0.90;;
72524;SDS011;60547;48.502;8.996;2022-09-09T10:06:28;5.05;;;0.98;;
72524;SDS011;60547;48.502;8.996;2022-09-09T10:08:55;2.85;;;1.38;;
72524;SDS011;60547;48.502;8.996;2022-09-09T10:14:11;3.83;;;0.80;;
72524;SDS011;60547;48.502;8.996;2022-09-09T10:27:47;3.63;;;1.08;;
72524;SDS011;60547;48.502;8.996;2022-09-09T10:38:47;5.10;;;0.88;;
72524;SDS011;60547;48.502;8.996;2022-09-09T10:44:02;2.75;;;0.90;;
72524;SDS011;60547;48.502;8.996;2022-09-09T10:54:39;2.75;;;0.68;;
72524;SDS011;60547;48.502;8.996;2022-09-09T11:03:01;1.00;;;0.57;;
72524;SDS011;60547;48.502;8.996;2022-09-09T11:05:33;1.67;;;0.80;;
72524;SDS011;60547;48.502;8.996;2022-09-09T11:13:36;4.68;;;1.20;;
72524;SDS011;60547;48.502;8.996;2022-09-09T11:18:37;1.85;;;0.60;;
72524;SDS011;60547;48.502;8.996;2022-09-09T11:21:07;3.03;;;0.70;;
72524;SDS011;60547;48.502;8.996;2022-09-09T11:23:40;2.75;;;0.82;;
72524;SDS011;60547;48.502;8.996;2022-09-09T11:26:12;2.08;;;0.70;;
72524;SDS011;60547;48.502;8.996;2022-09-09T11:45:37;0.90;;;0.50;;
72524;SDS011;60547;48.502;8.996;2022-09-09T11:48:21;1.38;;;0.45;;
72524;SDS011;60547;48.502;8.996;2022-09-09T11:51:05;3.55;;;0.65;;
72524;SDS011;60547;48.502;8.996;2022-09-09T11:53:36;0.85;;;0.38;;
72524;SDS011;60547;48.502;8.996;2022-09-09T11:56:23;2.88;;;0.60;;
72524;SDS011;60547;48.502;8.996;2022-09-09T11:58:59;2.10;;;0.50;;
72524;SDS011;60547;48.502;8.996;2022-09-09T12:06:48;2.65;;;0.88;;
72524;SDS011;60547;48.502;8.996;2022-09-09T12:19:39;4.47;;;0.95;;
72524;SDS011;60547;48.502;8.996;2022-09-09T12:22:15;4.15;;;1.00;;
72524;SDS011;60547;48.502;8.996;2022-09-09T12:24:54;4.53;;;1.02;;
72524;SDS011;60547;48.502;8.996;2022-09-09T12:27:46;2.53;;;0.80;;
72524;SDS011;60547;48.502;8.996;2022-09-09T12:30:34;1.92;;;0.80;;
72524;SDS011;60547;48.502;8.996;2022-09-09T12:33:11;2.50;;;0.65;;
72524;SDS011;60547;48.502;8.996;2022-09-09T12:35:38;1.55;;;0.60;;
72524;SDS011;60547;48.502;8.996;2022-09-09T12:38:05;1.88;;;0.60;;
72524;SDS011;60547;48.502;8.996;2022-09-09T12:40:36;3.15;;;0.82;;
72524;SDS011;60547;48.502;8.996;2022-09-09T12:43:15;4.18;;;0.73;;
72524;SDS011;60547;48.502;8.996;2022-09-09T12:45:43;2.45;;;0.90;;
72524;SDS011;60547;48.502;8.996;2022-09-09T12:48:10;1.98;;;0.70;;
72524;SDS011;60547;48.502;8.996;2022-09-09T12:50:46;1.83;;;0.73;;
72524;SDS011;60547;48.502;8.996;2022-09-09T12:53:20;2.50;;;0.73;;
72524;SDS011;60547;48.502;8.996;2022-09-09T12:58:28;2.35;;;0.75;;
72524;SDS011;60547;48.502;8.996;2022-09-09T13:01:00;3.05;;;1.00;;
72524;SDS011;60547;48.502;8.996;2022-09-09T13:03:28;2.58;;;0.80;;
72524;SDS011;60547;48.502;8.996;2022-09-09T13:05:57;3.35;;;1.00;;
72524;SDS011;60547;48.502;8.996;2022-09-09T13:08:25;3.17;;;0.90;;
72524;SDS011;60547;48.502;8.996;2022-09-09T13:11:01;3.00;;;0.80;;
72524;SDS011;60547;48.502;8.996;2022-09-09T13:13:31;2.42;;;0.93;;
72524;SDS011;60547;48.502;8.996;2022-09-09T13:16:03;3.45;;;0.70;;
72524;SDS011;60547;48.502;8.996;2022-09-09T13:18:34;2.55;;;0.70;;
72524;SDS011;60547;48.502;8.996;2022-09-09T13:21:03;2.45;;;0.70;;
72524;SDS011;60547;48.502;8.996;2022-09-09T13:23:29;2.70;;;0.80;;
72524;SDS011;60547;48.502;8.996;2022-09-09T13:26:39;2.22;;;0.70;;
72524;SDS011;60547;48.502;8.996;2022-09-09T13:31:22;3.03;;;0.68;;
72524;SDS011;60547;48.502;8.996;2022-09-09T13:33:52;4.28;;;0.85;;
72524;SDS011;60547;48.502;8.996;2022-09-09T13:36:26;2.22;;;0.60;;
72524;SDS011;60547;48.502;8.996;2022-09-09T13:38:56;2.70;;;0.70;;
72524;SDS011;60547;48.502;8.996;2022-09-09T13:41:35;3.03;;;0.80;;
72524;SDS011;60547;48.502;8.996;2022-09-09T13:44:02;3.03;;;1.00;;
72524;SDS011;60547;48.502;8.996;2022-09-09T13:54:10;2.67;;;0.70;;
72524;SDS011;60547;48.502;8.996;2022-09-09T13:56:38;2.90;;;0.75;;
72524;SDS011;60547;48.502;8.996;2022-09-09T13:59:06;2.17;;;0.50;;
72524;SDS011;60547;48.502;8.996;2022-09-09T14:01:36;2.88;;;0.82;;
72524;SDS011;60547;48.502;8.996;2022-09-09T14:04:02;1.85;;;0.68;;
72524;SDS011;60547;48.502;8.996;2022-09-09T14:06:28;3.42;;;0.68;;
72524;SDS011;60547;48.502;8.996;2022-09-09T14:08:54;1.70;;;0.60;;
72524;SDS011;60547;48.502;8.996;2022-09-09T14:11:20;4.90;;;0.95;;
72524;SDS011;60547;48.502;8.996;2022-09-09T14:13:46;1.95;;;0.60;;
72524;SDS011;60547;48.502;8.996;2022-09-09T14:16:15;1.95;;;0.60;;
72524;SDS011;60547;48.502;8.996;2022-09-09T14:18:44;1.55;;;0.60;;
72524;SDS011;60547;48.502;8.996;2022-09-09T14:21:10;1.40;;;0.40;;
72524;SDS011;60547;48.502;8.996;2022-09-09T14:23:36;2.53;;;0.90;;
72524;SDS011;60547;48.502;8.996;2022-09-09T14:26:04;1.60;;;0.50;;
72524;SDS011;60547;48.502;8.996;2022-09-09T14:28:31;2.92;;;0.70;;
72524;SDS011;60547;48.502;8.996;2022-09-09T14:30:59;3.15;;;0.80;;
72524;SDS011;60547;48.502;8.996;2022-09-09T14:33:26;1.85;;;0.63;;
72524;SDS011;60547;48.502;8.996;2022-09-09T14:35:57;1.25;;;0.40;;
72524;SDS011;60547;48.502;8.996;2022-09-09T14:38:30;1.90;;;0.47;;
72524;SDS011;60547;48.502;8.996;2022-09-09T14:40:59;3.00;;;0.73;;
72524;SDS011;60547;48.502;8.996;2022-09-09T14:43:26;2.33;;;0.52;;
72524;SDS011;60547;48.502;8.996;2022-09-09T14:45:52;2.75;;;0.77;;
72524;SDS011;60547;48.502;8.996;2022-09-09T14:48:17;1.40;;;0.50;;
72524;SDS011;60547;48.502;8.996;2022-09-09T14:50:43;2.42;;;0.43;;
72524;SDS011;60547;48.502;8.996;2022-09-09T14:53:08;2.63;;;0.60;;
72524;SDS011;60547;48.502;8.996;2022-09-09T14:55:35;2.70;;;0.70;;
72524;SDS011;60547;48.502;8.996;2022-09-09T14:58:01;1.40;;;0.50;;
72524;SDS011;60547;48.502;8.996;2022-09-09T15:00:26;4.15;;;0.85;;
72524;SDS011;60547;48.502;8.996;2022-09-09T15:02:52;1.45;;;0.47;;
72524;SDS011;60547;48.502;8.996;2022-09-09T15:05:18;2.20;;;0.82;;
72524;SDS011;60547;48.502;8.996;2022-09-09T15:07:44;1.00;;;0.63;;
72524;SDS011;60547;48.502;8.996;2022-09-09T15:10:09;2.25;;;0.63;;
72524;SDS011;60547;48.502;8.996;2022-09-09T15:12:36;2.83;;;0.60;;
72524;SDS011;60547;48.502;8.996;2022-09-09T15:15:02;2.20;;;0.40;;
72524;SDS011;60547;48.502;8.996;2022-09-09T15:17:28;2.25;;;0.60;;
72524;SDS011;60547;48.502;8.996;2022-09-09T15:19:54;2.63;;;0.70;;
72524;SDS011;60547;48.502;8.996;2022-09-09T15:22:20;2.08;;;0.55;;
72524;SDS011;60547;48.502;8.996;2022-09-09T15:24:45;3.55;;;0.82;;
72524;SDS011;60547;48.502;8.996;2022-09-09T15:27:10;4.43;;;0.93;;
72524;SDS011;60547;48.502;8.996;2022-09-09T15:29:36;1.75;;;0.60;;
72524;SDS011;60547;48.502;8.996;2022-09-09T15:32:03;1.60;;;0.52;;
72524;SDS011;60547;48.502;8.996;2022-09-09T15:34:28;2.08;;;0.50;;
72524;SDS011;60547;48.502;8.996;2022-09-09T15:36:54;1.25;;;0.50;;
72524;SDS011;60547;48.502;8.996;2022-09-09T15:39:20;1.67;;;0.55;;
72524;SDS011;60547;48.502;8.996;2022-09-09T15:41:46;2.42;;;0.60;;
72524;SDS011;60547;48.502;8.996;2022-09-09T15:44:13;3.20;;;0.50;;
72524;SDS011;60547;48.502;8.996;2022-09-09T15:46:44;0.95;;;0.38;;
72524;SDS011;60547;48.502;8.996;2022-09-09T15:49:14;1.42;;;0.45;;
72524;SDS011;60547;48.502;8.996;2022-09-09T15:51:43;1.35;;;0.40;;
72524;SDS011;60547;48.502;8.996;2022-09-09T15:54:10;1.48;;;0.50;;
72524;SDS011;60547;48.502;8.996;2022-09-09T15:56:37;2.35;;;0.50;;
72524;SDS011;60547;48.502;8.996;2022-09-09T15:59:02;1.77;;;0.43;;
72524;SDS011;60547;48.502;8.996;2022-09-09T16:01:30;0.68;;;0.40;;
72524;SDS011;60547;48.502;8.996;2022-09-09T16:03:57;1.40;;;0.60;;
72524;SDS011;60547;48.502;8.996;2022-09-09T16:06:24;1.58;;;0.45;;
72524;SDS011;60547;48.502;8.996;2022-09-09T16:08:51;1.00;;;0.40;;
72524;SDS011;60547;48.502;8.996;2022-09-09T16:13:48;2.97;;;0.70;;
72524;SDS011;60547;48.502;8.996;2022-09-09T16:16:16;1.92;;;0.63;;
72524;SDS011;60547;48.502;8.996;2022-09-09T16:18:51;0.98;;;0.30;;
72524;SDS011;60547;48.502;8.996;2022-09-09T16:21:20;1.63;;;0.47;;
72524;SDS011;60547;48.502;8.996;2022-09-09T16:23:46;1.92;;;0.60;;
72524;SDS011;60547;48.502;8.996;2022-09-09T16:26:13;4.70;;;0.95;;
72524;SDS011;60547;48.502;8.996;2022-09-09T16:28:40;0.60;;;0.30;;
72524;SDS011;60547;48.502;8.996;2022-09-09T16:31:06;2.50;;;0.55;;
72524;SDS011;60547;48.502;8.996;2022-09-09T16:33:32;2.38;;;0.60;;
72524;SDS011;60547;48.502;8.996;2022-09-09T16:36:07;2.63;;;0.45;;
72524;SDS011;60547;48.502;8.996;2022-09-09T16:38:33;3.08;;;0.50;;
72524;SDS011;60547;48.502;8.996;2022-09-09T16:41:00;3.38;;;0.77;;
72524;SDS011;60547;48.502;8.996;2022-09-09T16:43:27;2.00;;;0.63;;
72524;SDS011;60547;48.502;8.996;2022-09-09T16:45:52;1.88;;;0.43;;
72524;SDS011;60547;48.502;8.996;2022-09-09T16:48:18;1.85;;;0.55;;
72524;SDS011;60547;48.502;8.996;2022-09-09T16:50:43;1.63;;;0.60;;
72524;SDS011;60547;48.502;8.996;2022-09-09T16:53:09;1.52;;;0.40;;
72524;SDS011;60547;48.502;8.996;2022-09-09T16:55:38;1.60;;;0.50;;
72524;SDS011;60547;48.502;8.996;2022-09-09T16:58:06;3.83;;;0.70;;
72524;SDS011;60547;48.502;8.996;2022-09-09T17:00:40;1.77;;;0.50;;
72524;SDS011;60547;48.502;8.996;2022-09-09T17:03:06;3.13;;;0.80;;
72524;SDS011;60547;48.502;8.996;2022-09-09T17:05:31;1.40;;;0.43;;
72524;SDS011;60547;48.502;8.996;2022-09-09T17:07:57;1.85;;;0.70;;
72524;SDS011;60547;48.502;8.996;2022-09-09T17:10:24;2.13;;;0.80;;
72524;SDS011;60547;48.502;8.996;2022-09-09T17:12:50;2.38;;;0.90;;
72524;SDS011;60547;48.502;8.996;2022-09-09T17:15:16;1.50;;;0.70;;
72524;SDS011;60547;48.502;8.996;2022-09-09T17:17:43;2.97;;;0.52;;
72524;SDS011;60547;48.502;8.996;2022-09-09T17:20:10;2.42;;;0.65;;
72524;SDS011;60547;48.502;8.996;2022-09-09T17:22:35;1.83;;;0.68;;
72524;SDS011;60547;48.502;8.996;2022-09-09T17:25:01;2.15;;;0.70;;
72524;SDS011;60547;48.502;8.996;2022-09-09T17:27:28;3.25;;;1.00;;
72524;SDS011;60547;48.502;8.996;2022-09-09T17:29:56;2.40;;;0.63;;
72524;SDS011;60547;48.502;8.996;2022-09-09T17:32:22;2.17;;;0.90;;
72524;SDS011;60547;48.502;8.996;2022-09-09T17:34:48;3.95;;;0.80;;
72524;SDS011;60547;48.502;8.996;2022-09-09T17:37:13;2.60;;;0.60;;
72524;SDS011;60547;48.502;8.996;2022-09-09T17:39:38;1.92;;;0.73;;
72524;SDS011;60547;48.502;8.996;2022-09-09T17:42:04;3.08;;;0.95;;